sensor_id;sensor_type;location;lat;lon;timestamp;pressure;altitude;pressure_sealevel;temperature;humidity
52625;BME280;38519;52.540;13.410;2022-12-24T00:02:07;99611.09;;;5.21;100.00
52625;BME280;38519;52.540;13.410;2022-12-24T00:04:32;99611.22;;;5.23;100.00
52625;BME280;38519;52.540;13.410;2022-12-24T00:07:03;99607.38;;;5.18;100.00
52625;BME280;38519;52.540;13.410;2022-12-24T00:09:31;99606.25;;;5.14;100.00
52625;BME280;38519;52.540;13.410;2022-12-24T00:11:59;99605.69;;;5.18;100.00
52625;BME280;38519;52.540;13.410;2022-12-24T00:14:26;99609.59;;;5.01;100.00
52625;BME280;38519;52.540;13.410;2022-12-24T00:16:52;99614.78;;;5.01;100.00
52625;BME280;38519;52.540;13.410;2022-12-24T00:19:35;99606.53;;;4.95;100.00
52625;BME280;38519;52.540;13.410;2022-12-24T00:22:01;99608.09;;;4.93;100.00
52625;BME280;38519;52.540;13.410;2022-12-24T00:24:26;99593.47;;;4.93;100.00
52625;BME280;38519;52.540;13.410;2022-12-24T00:26:52;99602.94;;;4.93;100.00
52625;BME280;38519;52.540;13.410;2022-12-24T00:29:17;99604.22;;;4.88;100.00
52625;BME280;38519;52.540;13.410;2022-12-24T00:31:45;99604.81;;;4.84;100.00
52625;BME280;38519;52.540;13.410;2022-12-24T00:34:11;99606.66;;;4.97;100.00
52625;BME280;38519;52.540;13.410;2022-12-24T00:36:36;99606.00;;;4.99;100.00
52625;BME280;38519;52.540;13.410;2022-12-24T00:39:05;99605.75;;;4.96;100.00
52625;BME280;38519;52.540;13.410;2022-12-24T00:41:31;99603.94;;;4.95;100.00
52625;BME280;38519;52.540;13.410;2022-12-24T00:44:03;99612.59;;;4.96;100.00
52625;BME280;38519;52.540;13.410;2022-12-24T00:46:31;99611.78;;;4.85;100.00
52625;BME280;38519;52.540;13.410;2022-12-24T00:48:59;99613.31;;;4.83;100.00
52625;BME280;38519;52.540;13.410;2022-12-24T00:51:25;99620.91;;;4.91;100.00
52625;BME280;38519;52.540;13.410;2022-12-24T00:54:13;99625.00;;;5.00;100.00
52625;BME280;38519;52.540;13.410;2022-12-24T00:56:40;99624.50;;;4.93;100.00
52625;BME280;38519;52.540;13.410;2022-12-24T00:59:06;99630.94;;;4.77;100.00
52625;BME280;38519;52.540;13.410;2022-12-24T01:01:31;99622.97;;;4.73;100.00
52625;BME280;38519;52.540;13.410;2022-12-24T01:04:00;99628.03;;;4.72;100.00
52625;BME280;38519;52.540;13.410;2022-12-24T01:06:45;99632.00;;;4.79;100.00
52625;BME280;38519;52.540;13.410;2022-12-24T01:09:11;99638.31;;;4.82;100.00
52625;BME280;38519;52.540;13.410;2022-12-24T01:11:36;99639.69;;;4.89;100.00
52625;BME280;38519;52.540;13.410;2022-12-24T01:14:01;99644.81;;;4.99;100.00
52625;BME280;38519;52.540;13.410;2022-12-24T01:16:27;99643.75;;;4.97;100.00
52625;BME280;38519;52.540;13.410;2022-12-24T01:18:54;99646.47;;;4.99;100.00
52625;BME280;38519;52.540;13.410;2022-12-24T01:21:21;99645.75;;;4.89;100.00
52625;BME280;38519;52.540;13.410;2022-12-24T01:23:48;99647.44;;;4.89;100.00
52625;BME280;38519;52.540;13.410;2022-12-24T01:26:14;99653.97;;;4.96;100.00
52625;BME280;38519;52.540;13.410;2022-12-24T01:28:40;99651.00;;;4.79;100.00
52625;BME280;38519;52.540;13.410;2022-12-24T01:31:12;99656.69;;;4.97;100.00
52625;BME280;38519;52.540;13.410;2022-12-24T01:33:56;99653.50;;;4.89;100.00
52625;BME280;38519;52.540;13.410;2022-12-24T01:36:21;99660.84;;;4.95;100.00
52625;BME280;38519;52.540;13.410;2022-12-24T01:38:47;99653.09;;;4.95;100.00
52625;BME280;38519;52.540;13.410;2022-12-24T01:41:18;99658.06;;;5.04;100.00
52625;BME280;38519;52.540;13.410;2022-12-24T01:46:47;99660.53;;;5.02;100.00
52625;BME280;38519;52.540;13.410;2022-12-24T01:49:14;99667.69;;;5.17;100.00
52625;BME280;38519;52.540;13.410;2022-12-24T01:51:45;99674.91;;;5.21;100.00
52625;BME280;38519;52.540;13.410;2022-12-24T01:54:55;99667.63;;;5.05;100.00
52625;BME280;38519;52.540;13.410;2022-12-24T01:57:24;99674.16;;;5.00;100.00
52625;BME280;38519;52.540;13.410;2022-12-24T01:59:48;99680.22;;;5.00;100.00
52625;BME280;38519;52.540;13.410;2022-12-24T02:02:15;99682.75;;;5.10;100.00
52625;BME280;38519;52.540;13.410;2022-12-24T02:05:04;99684.00;;;5.16;100.00
52625;BME280;38519;52.540;13.410;2022-12-24T02:07:27;99683.50;;;4.98;100.00
52625;BME280;38519;52.540;13.410;2022-12-24T02:09:55;99697.13;;;5.07;100.00
52625;BME280;38519;52.540;13.410;2022-12-24T02:12:21;99700.06;;;5.11;100.00
52625;BME280;38519;52.540;13.410;2022-12-24T02:14:47;99700.75;;;5.09;100.00
52625;BME280;38519;52.540;13.410;2022-12-24T02:17:20;99706.03;;;5.10;100.00
52625;BME280;38519;52.540;13.410;2022-12-24T02:30:33;99730.47;;;5.14;100.00
52625;BME280;38519;52.540;13.410;2022-12-24T02:35:33;99733.47;;;5.08;100.00
52625;BME280;38519;52.540;13.410;2022-12-24T02:38:02;99734.50;;;5.10;100.00
52625;BME280;38519;52.540;13.410;2022-12-24T02:40:42;99736.88;;;4.97;100.00
52625;BME280;38519;52.540;13.410;2022-12-24T02:43:16;99736.72;;;5.06;100.00
52625;BME280;38519;52.540;13.410;2022-12-24T02:45:49;99740.69;;;5.13;100.00
52625;BME280;38519;52.540;13.410;2022-12-24T02:48:16;99752.25;;;5.06;100.00
52625;BME280;38519;52.540;13.410;2022-12-24T02:50:55;99746.41;;;5.08;100.00
52625;BME280;38519;52.540;13.410;2022-12-24T02:53:21;99748.81;;;4.95;100.00
52625;BME280;38519;52.540;13.410;2022-12-24T02:56:04;99762.69;;;4.85;100.00
52625;BME280;38519;52.540;13.410;2022-12-24T03:06:39;99767.72;;;5.16;100.00
52625;BME280;38519;52.540;13.410;2022-12-24T03:09:24;99771.19;;;5.17;100.00
52625;BME280;38519;52.540;13.410;2022-12-24T03:11:57;99769.38;;;4.93;100.00
52625;BME280;38519;52.540;13.410;2022-12-24T03:14:24;99766.72;;;5.04;100.00
52625;BME280;38519;52.540;13.410;2022-12-24T03:16:53;99769.16;;;5.13;100.00
52625;BME280;38519;52.540;13.410;2022-12-24T03:19:18;99772.53;;;5.11;100.00
52625;BME280;38519;52.540;13.410;2022-12-24T03:21:45;99778.78;;;5.03;100.00
52625;BME280;38519;52.540;13.410;2022-12-24T03:24:12;99771.84;;;4.92;100.00
52625;BME280;38519;52.540;13.410;2022-12-24T03:26:40;99770.75;;;5.10;100.00
52625;BME280;38519;52.540;13.410;2022-12-24T03:29:06;99783.94;;;5.03;100.00
52625;BME280;38519;52.540;13.410;2022-12-24T03:31:44;99784.41;;;4.87;100.00
52625;BME280;38519;52.540;13.410;2022-12-24T03:34:11;99795.56;;;5.08;100.00
52625;BME280;38519;52.540;13.410;2022-12-24T03:36:40;99794.78;;;5.09;100.00
52625;BME280;38519;52.540;13.410;2022-12-24T03:39:05;99791.19;;;5.07;100.00
52625;BME280;38519;52.540;13.410;2022-12-24T03:41:35;99795.13;;;4.92;100.00
52625;BME280;38519;52.540;13.410;2022-12-24T03:44:02;99798.22;;;4.88;100.00
52625;BME280;38519;52.540;13.410;2022-12-24T03:46:29;99801.66;;;4.77;100.00
52625;BME280;38519;52.540;13.410;2022-12-24T03:48:54;99806.34;;;4.70;100.00
52625;BME280;38519;52.540;13.410;2022-12-24T03:51:21;99804.22;;;4.87;100.00
52625;BME280;38519;52.540;13.410;2022-12-24T03:53:46;99813.66;;;4.86;100.00
52625;BME280;38519;52.540;13.410;2022-12-24T03:56:12;99813.44;;;4.73;100.00
52625;BME280;38519;52.540;13.410;2022-12-24T03:58:38;99817.16;;;4.77;100.00
52625;BME280;38519;52.540;13.410;2022-12-24T04:01:05;99822.59;;;4.80;100.00
52625;BME280;38519;52.540;13.410;2022-12-24T04:03:30;99827.25;;;4.84;100.00
52625;BME280;38519;52.540;13.410;2022-12-24T04:06:03;99829.78;;;4.94;100.00
52625;BME280;38519;52.540;13.410;2022-12-24T04:08:32;99828.75;;;4.92;100.00
52625;BME280;38519;52.540;13.410;2022-12-24T04:10:58;99827.94;;;4.71;100.00
52625;BME280;38519;52.540;13.410;2022-12-24T04:13:24;99830.09;;;4.77;100.00
52625;BME280;38519;52.540;13.410;2022-12-24T04:15:57;99822.13;;;4.73;100.00
52625;BME280;38519;52.540;13.410;2022-12-24T04:18:25;99806.34;;;4.70;100.00
52625;BME280;38519;52.540;13.410;2022-12-24T04:20:53;99809.56;;;4.68;100.00
52625;BME280;38519;52.540;13.410;2022-12-24T04:23:19;99821.59;;;4.67;100.00
52625;BME280;38519;52.540;13.410;2022-12-24T04:25:45;99831.00;;;4.77;100.00
52625;BME280;38519;52.540;13.410;2022-12-24T04:28:12;99837.84;;;4.87;100.00
52625;BME280;38519;52.540;13.410;2022-12-24T04:30:39;99842.88;;;4.85;100.00
52625;BME280;38519;52.540;13.410;2022-12-24T04:33:08;99841.75;;;4.71;100.00
52625;BME280;38519;52.540;13.410;2022-12-24T04:35:37;99844.84;;;4.78;100.00
52625;BME280;38519;52.540;13.410;2022-12-24T04:38:02;99850.13;;;4.79;100.00
52625;BME280;38519;52.540;13.410;2022-12-24T04:40:29;99850.25;;;4.81;100.00
52625;BME280;38519;52.540;13.410;2022-12-24T04:42:57;99863.25;;;4.70;100.00
52625;BME280;38519;52.540;13.410;2022-12-24T04:45:24;99863.59;;;4.75;100.00
52625;BME280;38519;52.540;13.410;2022-12-24T04:47:49;99874.94;;;4.87;100.00
52625;BME280;38519;52.540;13.410;2022-12-24T04:50:17;99878.91;;;5.04;100.00
52625;BME280;38519;52.540;13.410;2022-12-24T04:52:46;99884.09;;;5.04;100.00
52625;BME280;38519;52.540;13.410;2022-12-24T04:55:13;99879.84;;;4.95;100.00
52625;BME280;38519;52.540;13.410;2022-12-24T04:57:40;99882.06;;;4.90;100.00
52625;BME280;38519;52.540;13.410;2022-12-24T05:00:06;99881.59;;;4.73;100.00
52625;BME280;38519;52.540;13.410;2022-12-24T05:02:34;99883.78;;;4.69;100.00
52625;BME280;38519;52.540;13.410;2022-12-24T05:05:02;99890.09;;;4.83;100.00
52625;BME280;38519;52.540;13.410;2022-12-24T05:07:27;99891.13;;;4.85;100.00
52625;BME280;38519;52.540;13.410;2022-12-24T05:09:53;99893.09;;;4.77;100.00
52625;BME280;38519;52.540;13.410;2022-12-24T05:12:18;99887.91;;;4.77;100.00
52625;BME280;38519;52.540;13.410;2022-12-24T05:14:44;99888.97;;;4.69;100.00
52625;BME280;38519;52.540;13.410;2022-12-24T05:17:09;99894.78;;;4.66;100.00
52625;BME280;38519;52.540;13.410;2022-12-24T05:19:35;99893.88;;;4.66;100.00
52625;BME280;38519;52.540;13.410;2022-12-24T05:22:01;99882.63;;;4.65;100.00
52625;BME280;38519;52.540;13.410;2022-12-24T05:24:45;99890.38;;;4.65;100.00
52625;BME280;38519;52.540;13.410;2022-12-24T05:27:31;99895.28;;;4.62;100.00
52625;BME280;38519;52.540;13.410;2022-12-24T05:29:57;99895.28;;;4.62;100.00
52625;BME280;38519;52.540;13.410;2022-12-24T05:32:23;99886.38;;;4.59;100.00
52625;BME280;38519;52.540;13.410;2022-12-24T05:34:48;99889.63;;;4.56;100.00
52625;BME280;38519;52.540;13.410;2022-12-24T05:37:14;99889.63;;;4.56;100.00
52625;BME280;38519;52.540;13.410;2022-12-24T05:39:40;99894.00;;;4.57;100.00
52625;BME280;38519;52.540;13.410;2022-12-24T05:42:07;99892.47;;;4.59;100.00
52625;BME280;38519;52.540;13.410;2022-12-24T05:44:33;99889.50;;;4.54;100.00
52625;BME280;38519;52.540;13.410;2022-12-24T05:46:58;99894.41;;;4.51;100.00
52625;BME280;38519;52.540;13.410;2022-12-24T05:49:24;99908.50;;;4.55;100.00
52625;BME280;38519;52.540;13.410;2022-12-24T05:51:51;99915.72;;;4.69;100.00
52625;BME280;38519;52.540;13.410;2022-12-24T05:54:18;99913.00;;;4.68;100.00
52625;BME280;38519;52.540;13.410;2022-12-24T05:56:43;99918.34;;;4.59;100.00
52625;BME280;38519;52.540;13.410;2022-12-24T05:59:10;99915.22;;;4.63;100.00
52625;BME280;38519;52.540;13.410;2022-12-24T06:01:39;99919.09;;;4.58;100.00
52625;BME280;38519;52.540;13.410;2022-12-24T06:04:12;99926.22;;;4.61;100.00
52625;BME280;38519;52.540;13.410;2022-12-24T06:06:42;99930.09;;;4.66;100.00
52625;BME280;38519;52.540;13.410;2022-12-24T06:09:07;99929.56;;;4.60;100.00
52625;BME280;38519;52.540;13.410;2022-12-24T06:11:32;99926.59;;;4.55;100.00
52625;BME280;38519;52.540;13.410;2022-12-24T06:13:59;99928.41;;;4.56;100.00
52625;BME280;38519;52.540;13.410;2022-12-24T06:16:26;99932.16;;;4.60;100.00
52625;BME280;38519;52.540;13.410;2022-12-24T06:18:56;99934.75;;;4.60;100.00
52625;BME280;38519;52.540;13.410;2022-12-24T06:21:22;99942.34;;;4.68;100.00
52625;BME280;38519;52.540;13.410;2022-12-24T06:23:47;99944.97;;;4.58;100.00
52625;BME280;38519;52.540;13.410;2022-12-24T06:26:18;99954.00;;;4.53;100.00
52625;BME280;38519;52.540;13.410;2022-12-24T06:28:49;99954.78;;;4.52;100.00
52625;BME280;38519;52.540;13.410;2022-12-24T06:31:18;99952.59;;;4.56;100.00
52625;BME280;38519;52.540;13.410;2022-12-24T06:33:44;99948.69;;;4.62;100.00
52625;BME280;38519;52.540;13.410;2022-12-24T06:36:20;99967.59;;;4.61;100.00
52625;BME280;38519;52.540;13.410;2022-12-24T06:38:48;99967.94;;;4.65;100.00
52625;BME280;38519;52.540;13.410;2022-12-24T06:41:19;99981.91;;;4.57;100.00
52625;BME280;38519;52.540;13.410;2022-12-24T06:43:54;99978.81;;;4.61;100.00
52625;BME280;38519;52.540;13.410;2022-12-24T06:46:20;99989.00;;;4.49;100.00
52625;BME280;38519;52.540;13.410;2022-12-24T06:48:46;99984.50;;;4.57;100.00
52625;BME280;38519;52.540;13.410;2022-12-24T06:51:14;99982.59;;;4.54;100.00
52625;BME280;38519;52.540;13.410;2022-12-24T06:53:42;99983.97;;;4.51;100.00
52625;BME280;38519;52.540;13.410;2022-12-24T06:56:10;99985.03;;;4.53;100.00
52625;BME280;38519;52.540;13.410;2022-12-24T06:58:44;99982.06;;;4.48;100.00
52625;BME280;38519;52.540;13.410;2022-12-24T07:01:11;99985.53;;;4.49;100.00
52625;BME280;38519;52.540;13.410;2022-12-24T07:03:39;99990.56;;;4.47;100.00
52625;BME280;38519;52.540;13.410;2022-12-24T07:06:05;99996.00;;;4.50;100.00
52625;BME280;38519;52.540;13.410;2022-12-24T07:08:47;99989.81;;;4.48;100.00
52625;BME280;38519;52.540;13.410;2022-12-24T07:11:15;99994.06;;;4.48;100.00
52625;BME280;38519;52.540;13.410;2022-12-24T07:13:42;100004.28;;;4.46;100.00
52625;BME280;38519;52.540;13.410;2022-12-24T07:16:07;100011.78;;;4.53;100.00
52625;BME280;38519;52.540;13.410;2022-12-24T07:18:36;100021.75;;;4.59;100.00
52625;BME280;38519;52.540;13.410;2022-12-24T07:21:02;100025.34;;;4.51;100.00
52625;BME280;38519;52.540;13.410;2022-12-24T07:23:29;100033.22;;;4.52;100.00
52625;BME280;38519;52.540;13.410;2022-12-24T07:26:02;100037.50;;;4.52;100.00
52625;BME280;38519;52.540;13.410;2022-12-24T07:28:28;100037.38;;;4.50;100.00
52625;BME280;38519;52.540;13.410;2022-12-24T07:30:54;100043.84;;;4.45;100.00
52625;BME280;38519;52.540;13.410;2022-12-24T07:33:24;100050.84;;;4.46;100.00
52625;BME280;38519;52.540;13.410;2022-12-24T07:36:00;100053.28;;;4.45;100.00
52625;BME280;38519;52.540;13.410;2022-12-24T07:38:27;100048.34;;;4.48;100.00
52625;BME280;38519;52.540;13.410;2022-12-24T07:40:52;100045.66;;;4.46;100.00
52625;BME280;38519;52.540;13.410;2022-12-24T07:43:19;100054.03;;;4.54;100.00
52625;BME280;38519;52.540;13.410;2022-12-24T07:45:45;100051.31;;;4.52;100.00
52625;BME280;38519;52.540;13.410;2022-12-24T07:48:16;100062.59;;;4.53;100.00
52625;BME280;38519;52.540;13.410;2022-12-24T07:50:41;100065.44;;;4.56;100.00
52625;BME280;38519;52.540;13.410;2022-12-24T07:53:09;100067.25;;;4.57;100.00
52625;BME280;38519;52.540;13.410;2022-12-24T07:55:36;100071.53;;;4.56;100.00
52625;BME280;38519;52.540;13.410;2022-12-24T07:58:04;100072.69;;;4.60;100.00
52625;BME280;38519;52.540;13.410;2022-12-24T08:00:32;100074.09;;;4.56;100.00
52625;BME280;38519;52.540;13.410;2022-12-24T08:02:58;100074.50;;;4.61;100.00
52625;BME280;38519;52.540;13.410;2022-12-24T08:05:24;100077.84;;;4.60;100.00
52625;BME280;38519;52.540;13.410;2022-12-24T08:07:50;100078.66;;;4.59;100.00
52625;BME280;38519;52.540;13.410;2022-12-24T08:10:15;100077.84;;;4.60;100.00
52625;BME280;38519;52.540;13.410;2022-12-24T08:12:42;100079.53;;;4.60;100.00
52625;BME280;38519;52.540;13.410;2022-12-24T08:15:07;100075.25;;;4.60;100.00
52625;BME280;38519;52.540;13.410;2022-12-24T08:17:34;100079.41;;;4.58;100.00
52625;BME280;38519;52.540;13.410;2022-12-24T08:20:01;100090.78;;;4.60;100.00
52625;BME280;38519;52.540;13.410;2022-12-24T08:22:27;100088.06;;;4.59;100.00
52625;BME280;38519;52.540;13.410;2022-12-24T08:24:54;100083.03;;;4.60;100.00
52625;BME280;38519;52.540;13.410;2022-12-24T08:27:19;100086.00;;;4.65;100.00
52625;BME280;38519;52.540;13.410;2022-12-24T08:29:47;100087.16;;;4.58;100.00
52625;BME280;38519;52.540;13.410;2022-12-24T08:32:17;100088.59;;;4.65;100.00
52625;BME280;38519;52.540;13.410;2022-12-24T08:34:48;100095.47;;;4.74;100.00
52625;BME280;38519;52.540;13.410;2022-12-24T08:37:20;100096.22;;;4.63;100.00
52625;BME280;38519;52.540;13.410;2022-12-24T08:39:45;100103.97;;;4.63;100.00
52625;BME280;38519;52.540;13.410;2022-12-24T08:42:10;100103.34;;;4.66;100.00
52625;BME280;38519;52.540;13.410;2022-12-24T08:44:37;100108.53;;;4.76;100.00
52625;BME280;38519;52.540;13.410;2022-12-24T08:47:08;100107.38;;;4.72;100.00
52625;BME280;38519;52.540;13.410;2022-12-24T08:49:36;100109.69;;;4.80;100.00
52625;BME280;38519;52.540;13.410;2022-12-24T08:52:02;100114.47;;;4.65;100.00
52625;BME280;38519;52.540;13.410;2022-12-24T08:54:51;100114.84;;;4.69;100.00
52625;BME280;38519;52.540;13.410;2022-12-24T08:57:17;100119.63;;;4.65;100.00
52625;BME280;38519;52.540;13.410;2022-12-24T08:59:44;100120.38;;;4.64;100.00
52625;BME280;38519;52.540;13.410;2022-12-24T09:02:11;100116.16;;;4.74;100.00
52625;BME280;38519;52.540;13.410;2022-12-24T09:04:37;100121.84;;;4.70;100.00
52625;BME280;38519;52.540;13.410;2022-12-24T09:07:04;100129.88;;;4.73;100.00
52625;BME280;38519;52.540;13.410;2022-12-24T09:09:29;100129.75;;;4.72;100.00
52625;BME280;38519;52.540;13.410;2022-12-24T09:11:54;100123.94;;;4.85;100.00
52625;BME280;38519;52.540;13.410;2022-12-24T09:14:22;100139.19;;;4.82;100.00
52625;BME280;38519;52.540;13.410;2022-12-24T09:16:53;100144.88;;;4.88;100.00
52625;BME280;38519;52.540;13.410;2022-12-24T09:19:18;100151.09;;;4.90;100.00
52625;BME280;38519;52.540;13.410;2022-12-24T09:21:45;100150.97;;;4.88;100.00
52625;BME280;38519;52.540;13.410;2022-12-24T09:24:14;100150.19;;;4.79;100.00
52625;BME280;38519;52.540;13.410;2022-12-24T09:26:43;100157.81;;;4.78;100.00
52625;BME280;38519;52.540;13.410;2022-12-24T09:29:15;100158.75;;;4.88;100.00
52625;BME280;38519;52.540;13.410;2022-12-24T09:31:56;100164.19;;;4.91;100.00
52625;BME280;38519;52.540;13.410;2022-12-24T09:34:30;100164.81;;;4.89;100.00
52625;BME280;38519;52.540;13.410;2022-12-24T09:36:56;100167.38;;;4.79;100.00
52625;BME280;38519;52.540;13.410;2022-12-24T09:39:21;100171.16;;;4.92;100.00
52625;BME280;38519;52.540;13.410;2022-12-24T09:44:39;100188.94;;;5.19;100.00
52625;BME280;38519;52.540;13.410;2022-12-24T09:50:00;100189.28;;;5.13;100.00
52625;BME280;38519;52.540;13.410;2022-12-24T09:52:32;100200.81;;;4.96;100.00
52625;BME280;38519;52.540;13.410;2022-12-24T09:55:31;100203.88;;;4.92;100.00
52625;BME280;38519;52.540;13.410;2022-12-24T09:57:57;100200.81;;;4.96;100.00
52625;BME280;38519;52.540;13.410;2022-12-24T10:00:30;100211.03;;;5.05;100.00
52625;BME280;38519;52.540;13.410;2022-12-24T10:03:01;100207.63;;;4.96;100.00
52625;BME280;38519;52.540;13.410;2022-12-24T10:05:40;100213.75;;;5.06;100.00
52625;BME280;38519;52.540;13.410;2022-12-24T10:08:18;100217.38;;;5.08;100.00
52625;BME280;38519;52.540;13.410;2022-12-24T10:10:50;100229.16;;;5.15;100.00
52625;BME280;38519;52.540;13.410;2022-12-24T10:16:34;100226.81;;;5.18;100.00
52625;BME280;38519;52.540;13.410;2022-12-24T10:19:24;100227.09;;;5.21;100.00
52625;BME280;38519;52.540;13.410;2022-12-24T10:22:06;100235.53;;;5.19;100.00
52625;BME280;38519;52.540;13.410;2022-12-24T10:24:36;100236.41;;;5.19;100.00
52625;BME280;38519;52.540;13.410;2022-12-24T10:27:23;100236.28;;;5.28;100.00
52625;BME280;38519;52.540;13.410;2022-12-24T10:29:59;100238.66;;;5.25;100.00
52625;BME280;38519;52.540;13.410;2022-12-24T10:32:27;100248.50;;;5.39;100.00
52625;BME280;38519;52.540;13.410;2022-12-24T10:37:45;100254.19;;;5.45;100.00
52625;BME280;38519;52.540;13.410;2022-12-24T10:43:19;100260.28;;;5.66;100.00
52625;BME280;38519;52.540;13.410;2022-12-24T10:46:03;100265.09;;;5.93;100.00
52625;BME280;38519;52.540;13.410;2022-12-24T10:48:39;100265.63;;;6.09;100.00
52625;BME280;38519;52.540;13.410;2022-12-24T10:51:12;100273.53;;;6.11;100.00
52625;BME280;38519;52.540;13.410;2022-12-24T10:53:42;100275.06;;;6.29;100.00
52625;BME280;38519;52.540;13.410;2022-12-24T10:56:12;100273.06;;;6.37;100.00
52625;BME280;38519;52.540;13.410;2022-12-24T10:58:50;100275.66;;;6.47;100.00
52625;BME280;38519;52.540;13.410;2022-12-24T11:01:16;100275.63;;;6.57;100.00
52625;BME280;38519;52.540;13.410;2022-12-24T11:03:41;100280.81;;;6.57;100.00
52625;BME280;38519;52.540;13.410;2022-12-24T11:06:11;100285.72;;;6.65;100.00
52625;BME280;38519;52.540;13.410;2022-12-24T11:08:37;100284.16;;;6.67;100.00
52625;BME280;38519;52.540;13.410;2022-12-24T11:11:06;100282.97;;;6.73;100.00
52625;BME280;38519;52.540;13.410;2022-12-24T11:13:35;100292.97;;;6.69;100.00
52625;BME280;38519;52.540;13.410;2022-12-24T11:16:23;100292.72;;;6.66;100.00
52625;BME280;38519;52.540;13.410;2022-12-24T11:18:53;100295.94;;;6.73;100.00
52625;BME280;38519;52.540;13.410;2022-12-24T11:21:20;100291.28;;;6.69;100.00
52625;BME280;38519;52.540;13.410;2022-12-24T11:23:48;100291.41;;;6.71;100.00
52625;BME280;38519;52.540;13.410;2022-12-24T11:26:15;100297.25;;;6.68;100.00
52625;BME280;38519;52.540;13.410;2022-12-24T11:28:46;100288.69;;;6.69;100.00
52625;BME280;38519;52.540;13.410;2022-12-24T11:31:27;100294.16;;;6.62;100.00
52625;BME280;38519;52.540;13.410;2022-12-24T11:33:53;100285.88;;;6.56;100.00
52625;BME280;38519;52.540;13.410;2022-12-24T11:36:20;100290.66;;;6.62;100.00
52625;BME280;38519;52.540;13.410;2022-12-24T11:38:55;100298.69;;;6.65;100.00
52625;BME280;38519;52.540;13.410;2022-12-24T11:41:21;100309.59;;;6.61;100.00
52625;BME280;38519;52.540;13.410;2022-12-24T11:43:49;100305.56;;;6.64;100.00
52625;BME280;38519;52.540;13.410;2022-12-24T11:46:34;100304.91;;;6.67;100.00
52625;BME280;38519;52.540;13.410;2022-12-24T11:51:37;100293.72;;;6.78;100.00
52625;BME280;38519;52.540;13.410;2022-12-24T11:54:07;100309.53;;;6.81;100.00
52625;BME280;38519;52.540;13.410;2022-12-24T11:56:42;100312.38;;;6.84;100.00
52625;BME280;38519;52.540;13.410;2022-12-24T12:02:00;100323.78;;;6.86;100.00
52625;BME280;38519;52.540;13.410;2022-12-24T12:04:31;100325.63;;;6.77;100.00
52625;BME280;38519;52.540;13.410;2022-12-24T12:09:32;100323.53;;;6.93;100.00
52625;BME280;38519;52.540;13.410;2022-12-24T12:12:10;100328.16;;;6.98;100.00
52625;BME280;38519;52.540;13.410;2022-12-24T12:14:56;100331.81;;;6.89;100.00
52625;BME280;38519;52.540;13.410;2022-12-24T12:17:35;100328.84;;;6.95;100.00
52625;BME280;38519;52.540;13.410;2022-12-24T12:20:10;100334.38;;;7.00;100.00
52625;BME280;38519;52.540;13.410;2022-12-24T12:22:52;100329.84;;;6.97;100.00
52625;BME280;38519;52.540;13.410;2022-12-24T12:27:58;100336.97;;;7.00;100.00
52625;BME280;38519;52.540;13.410;2022-12-24T12:30:25;100333.84;;;7.04;100.00
52625;BME280;38519;52.540;13.410;2022-12-24T12:35:33;100343.59;;;7.06;100.00
52625;BME280;38519;52.540;13.410;2022-12-24T12:38:00;100350.41;;;7.16;100.00
52625;BME280;38519;52.540;13.410;2022-12-24T12:40:31;100349.09;;;7.21;100.00
52625;BME280;38519;52.540;13.410;2022-12-24T12:43:02;100360.34;;;7.32;100.00
52625;BME280;38519;52.540;13.410;2022-12-24T12:45:37;100347.13;;;7.29;100.00
52625;BME280;38519;52.540;13.410;2022-12-24T12:48:49;100362.59;;;7.17;100.00
52625;BME280;38519;52.540;13.410;2022-12-24T12:51:09;100365.16;;;7.27;100.00
52625;BME280;38519;52.540;13.410;2022-12-24T12:58:52;100366.94;;;7.39;100.00
52625;BME280;38519;52.540;13.410;2022-12-24T13:01:26;100375.75;;;7.41;100.00
52625;BME280;38519;52.540;13.410;2022-12-24T13:04:01;100365.06;;;7.48;100.00
52625;BME280;38519;52.540;13.410;2022-12-24T13:22:29;100358.47;;;7.63;100.00
52625;BME280;38519;52.540;13.410;2022-12-24T13:24:54;100371.47;;;7.63;100.00
52625;BME280;38519;52.540;13.410;2022-12-24T13:27:30;100364.22;;;7.59;100.00
52625;BME280;38519;52.540;13.410;2022-12-24T13:30:06;100369.44;;;7.59;100.00
52625;BME280;38519;52.540;13.410;2022-12-24T13:37:43;100379.09;;;7.72;100.00
52625;BME280;38519;52.540;13.410;2022-12-24T13:53:03;100403.63;;;7.98;100.00
52625;BME280;38519;52.540;13.410;2022-12-24T13:55:29;100419.09;;;7.96;100.00
52625;BME280;38519;52.540;13.410;2022-12-24T13:57:56;100421.72;;;7.96;100.00
52625;BME280;38519;52.540;13.410;2022-12-24T14:00:27;100416.63;;;7.98;100.00
52625;BME280;38519;52.540;13.410;2022-12-24T14:02:56;100428.53;;;8.06;100.00
52625;BME280;38519;52.540;13.410;2022-12-24T14:07:52;100429.13;;;8.14;100.00
52625;BME280;38519;52.540;13.410;2022-12-24T14:10:20;100433.41;;;8.13;100.00
52625;BME280;38519;52.540;13.410;2022-12-24T14:12:48;100436.56;;;8.09;100.00
52625;BME280;38519;52.540;13.410;2022-12-24T14:18:02;100449.75;;;8.00;100.00
52625;BME280;38519;52.540;13.410;2022-12-24T14:20:27;100459.91;;;7.97;100.00
52625;BME280;38519;52.540;13.410;2022-12-24T14:22:52;100458.22;;;7.98;100.00
52625;BME280;38519;52.540;13.410;2022-12-24T14:25:19;100462.75;;;8.00;100.00
52625;BME280;38519;52.540;13.410;2022-12-24T14:27:51;100464.81;;;8.05;100.00
52625;BME280;38519;52.540;13.410;2022-12-24T14:32:44;100459.97;;;8.09;100.00
52625;BME280;38519;52.540;13.410;2022-12-24T14:37:35;100458.88;;;7.95;100.00
52625;BME280;38519;52.540;13.410;2022-12-24T14:40:00;100461.91;;;7.90;100.00